Terminal Aerodrome Forecast
Issued by NWS Blacksburg, VA

Home | Current Version | Previous Version | Text Only | Print | Product List | Glossary On
Versions: 1 2 3 4 5 6 7 8 9 10 11 12 13 14 15 16 17 18 19 20 21 22 23 24
000
FTUS41 KRNK 311740
TAFDAN
TAF
KDAN 311740Z 3118/0118 VRB03KT P6SM FEW027 BKN250
     FM312100 20005KT P6SM BKN060
     FM010800 VRB03KT 6SM -SHRA BKN025 OVC040
     FM011200 06003KT 5SM -RA BR OVC015
     FM011500 07006KT 4SM RA BR OVC007=

USA.gov is the U.S. government's official web portal to all federal, state and local government web resources and services.